sensor_id;sensor_type;location;lat;lon;timestamp;P1;durP1;ratioP1;P2;durP2;ratioP2
26271;SDS011;13997;48.902;12.472;2022-10-17T00:01:13;17.05;;;8.27;;
26271;SDS011;13997;48.902;12.472;2022-10-17T00:03:40;16.45;;;8.15;;
26271;SDS011;13997;48.902;12.472;2022-10-17T00:06:07;15.27;;;7.43;;
26271;SDS011;13997;48.902;12.472;2022-10-17T00:08:33;12.52;;;7.15;;
26271;SDS011;13997;48.902;12.472;2022-10-17T00:11:01;17.23;;;7.75;;
26271;SDS011;13997;48.902;12.472;2022-10-17T00:13:27;17.77;;;8.52;;
26271;SDS011;13997;48.902;12.472;2022-10-17T00:15:54;16.52;;;8.00;;
26271;SDS011;13997;48.902;12.472;2022-10-17T00:18:25;23.75;;;7.40;;
26271;SDS011;13997;48.902;12.472;2022-10-17T00:20:51;12.48;;;7.72;;
26271;SDS011;13997;48.902;12.472;2022-10-17T00:23:17;16.77;;;7.63;;
26271;SDS011;13997;48.902;12.472;2022-10-17T00:25:43;13.30;;;7.68;;
26271;SDS011;13997;48.902;12.472;2022-10-17T00:28:10;14.25;;;7.97;;
26271;SDS011;13997;48.902;12.472;2022-10-17T00:30:36;15.70;;;7.78;;
26271;SDS011;13997;48.902;12.472;2022-10-17T00:33:02;17.45;;;8.13;;
26271;SDS011;13997;48.902;12.472;2022-10-17T00:35:28;18.50;;;7.82;;
26271;SDS011;13997;48.902;12.472;2022-10-17T00:37:54;13.80;;;7.35;;
26271;SDS011;13997;48.902;12.472;2022-10-17T00:40:20;16.63;;;8.15;;
26271;SDS011;13997;48.902;12.472;2022-10-17T00:42:46;17.25;;;8.10;;
26271;SDS011;13997;48.902;12.472;2022-10-17T00:47:44;18.10;;;8.55;;
26271;SDS011;13997;48.902;12.472;2022-10-17T00:52:40;16.00;;;8.73;;
26271;SDS011;13997;48.902;12.472;2022-10-17T00:57:35;17.70;;;8.23;;
26271;SDS011;13997;48.902;12.472;2022-10-17T01:00:03;13.45;;;8.25;;
26271;SDS011;13997;48.902;12.472;2022-10-17T01:02:32;17.73;;;9.25;;
26271;SDS011;13997;48.902;12.472;2022-10-17T01:04:58;15.95;;;8.43;;
26271;SDS011;13997;48.902;12.472;2022-10-17T01:07:24;13.45;;;8.05;;
26271;SDS011;13997;48.902;12.472;2022-10-17T01:09:54;18.55;;;9.02;;
26271;SDS011;13997;48.902;12.472;2022-10-17T01:26:13;19.63;;;8.70;;
26271;SDS011;13997;48.902;12.472;2022-10-17T01:29:32;12.20;;;8.13;;
26271;SDS011;13997;48.902;12.472;2022-10-17T01:31:31;16.92;;;8.98;;
26271;SDS011;13997;48.902;12.472;2022-10-17T01:34:04;13.05;;;8.68;;
26271;SDS011;13997;48.902;12.472;2022-10-17T01:36:38;16.98;;;8.85;;
26271;SDS011;13997;48.902;12.472;2022-10-17T01:39:11;11.95;;;8.27;;
26271;SDS011;13997;48.902;12.472;2022-10-17T01:41:39;13.38;;;8.15;;
26271;SDS011;13997;48.902;12.472;2022-10-17T01:47:09;14.55;;;8.32;;
26271;SDS011;13997;48.902;12.472;2022-10-17T01:49:36;15.70;;;8.23;;
26271;SDS011;13997;48.902;12.472;2022-10-17T01:52:05;13.73;;;8.20;;
26271;SDS011;13997;48.902;12.472;2022-10-17T01:57:33;21.65;;;9.35;;
26271;SDS011;13997;48.902;12.472;2022-10-17T02:00:01;15.80;;;9.18;;
26271;SDS011;13997;48.902;12.472;2022-10-17T02:02:33;15.88;;;9.07;;
26271;SDS011;13997;48.902;12.472;2022-10-17T02:04:59;14.23;;;7.93;;
26271;SDS011;13997;48.902;12.472;2022-10-17T02:07:29;14.70;;;7.95;;
26271;SDS011;13997;48.902;12.472;2022-10-17T02:09:55;15.23;;;9.10;;
26271;SDS011;13997;48.902;12.472;2022-10-17T02:22:33;18.33;;;9.32;;
26271;SDS011;13997;48.902;12.472;2022-10-17T02:30:07;19.38;;;10.70;;
26271;SDS011;13997;48.902;12.472;2022-10-17T02:32:41;23.75;;;11.75;;
26271;SDS011;13997;48.902;12.472;2022-10-17T02:35:11;19.77;;;9.98;;
26271;SDS011;13997;48.902;12.472;2022-10-17T02:37:38;18.23;;;10.38;;
26271;SDS011;13997;48.902;12.472;2022-10-17T02:40:08;16.52;;;10.52;;
26271;SDS011;13997;48.902;12.472;2022-10-17T02:42:34;17.08;;;10.35;;
26271;SDS011;13997;48.902;12.472;2022-10-17T02:45:01;23.42;;;11.35;;
26271;SDS011;13997;48.902;12.472;2022-10-17T02:47:31;15.55;;;10.00;;
26271;SDS011;13997;48.902;12.472;2022-10-17T02:50:02;15.43;;;8.77;;
26271;SDS011;13997;48.902;12.472;2022-10-17T02:52:33;17.50;;;9.60;;
26271;SDS011;13997;48.902;12.472;2022-10-17T02:57:39;18.33;;;9.93;;
26271;SDS011;13997;48.902;12.472;2022-10-17T03:00:12;17.58;;;10.02;;
26271;SDS011;13997;48.902;12.472;2022-10-17T03:05:05;15.75;;;10.10;;
26271;SDS011;13997;48.902;12.472;2022-10-17T03:07:31;15.05;;;9.07;;
26271;SDS011;13997;48.902;12.472;2022-10-17T03:09:57;16.23;;;9.25;;
26271;SDS011;13997;48.902;12.472;2022-10-17T03:12:23;17.15;;;9.30;;
26271;SDS011;13997;48.902;12.472;2022-10-17T03:14:49;18.67;;;8.82;;
26271;SDS011;13997;48.902;12.472;2022-10-17T03:17:17;14.88;;;8.57;;
26271;SDS011;13997;48.902;12.472;2022-10-17T03:19:44;19.23;;;9.02;;
26271;SDS011;13997;48.902;12.472;2022-10-17T03:22:10;13.88;;;8.98;;
26271;SDS011;13997;48.902;12.472;2022-10-17T03:24:36;14.32;;;9.02;;
26271;SDS011;13997;48.902;12.472;2022-10-17T03:27:02;15.27;;;8.73;;
26271;SDS011;13997;48.902;12.472;2022-10-17T03:29:32;13.88;;;9.48;;
26271;SDS011;13997;48.902;12.472;2022-10-17T03:31:59;17.50;;;9.77;;
26271;SDS011;13997;48.902;12.472;2022-10-17T03:34:25;13.57;;;8.38;;
26271;SDS011;13997;48.902;12.472;2022-10-17T03:36:51;16.83;;;8.80;;
26271;SDS011;13997;48.902;12.472;2022-10-17T03:39:17;17.25;;;9.82;;
26271;SDS011;13997;48.902;12.472;2022-10-17T03:41:43;16.70;;;9.90;;
26271;SDS011;13997;48.902;12.472;2022-10-17T03:44:13;20.45;;;9.80;;
26271;SDS011;13997;48.902;12.472;2022-10-17T03:46:42;17.52;;;10.15;;
26271;SDS011;13997;48.902;12.472;2022-10-17T03:49:08;18.77;;;9.98;;
26271;SDS011;13997;48.902;12.472;2022-10-17T03:51:35;17.42;;;9.98;;
26271;SDS011;13997;48.902;12.472;2022-10-17T03:54:01;46.85;;;29.65;;
26271;SDS011;13997;48.902;12.472;2022-10-17T03:56:29;22.33;;;13.93;;
26271;SDS011;13997;48.902;12.472;2022-10-17T03:58:55;18.88;;;10.30;;
26271;SDS011;13997;48.902;12.472;2022-10-17T04:01:24;17.55;;;11.00;;
26271;SDS011;13997;48.902;12.472;2022-10-17T04:03:51;22.05;;;12.30;;
26271;SDS011;13997;48.902;12.472;2022-10-17T04:06:17;19.13;;;10.73;;
26271;SDS011;13997;48.902;12.472;2022-10-17T04:08:43;19.38;;;10.07;;
26271;SDS011;13997;48.902;12.472;2022-10-17T04:11:09;13.38;;;9.10;;
26271;SDS011;13997;48.902;12.472;2022-10-17T04:13:38;12.38;;;8.25;;
26271;SDS011;13997;48.902;12.472;2022-10-17T04:16:07;15.48;;;8.25;;
26271;SDS011;13997;48.902;12.472;2022-10-17T04:18:34;13.32;;;7.88;;
26271;SDS011;13997;48.902;12.472;2022-10-17T04:21:01;14.10;;;7.38;;
26271;SDS011;13997;48.902;12.472;2022-10-17T04:23:27;13.85;;;7.70;;
26271;SDS011;13997;48.902;12.472;2022-10-17T04:25:57;14.52;;;7.85;;
26271;SDS011;13997;48.902;12.472;2022-10-17T04:28:23;11.70;;;6.68;;
26271;SDS011;13997;48.902;12.472;2022-10-17T04:30:58;12.02;;;6.97;;
26271;SDS011;13997;48.902;12.472;2022-10-17T04:33:27;9.55;;;5.57;;
26271;SDS011;13997;48.902;12.472;2022-10-17T04:36:04;11.68;;;5.80;;
26271;SDS011;13997;48.902;12.472;2022-10-17T04:38:30;10.60;;;5.50;;
26271;SDS011;13997;48.902;12.472;2022-10-17T04:41:02;11.20;;;6.18;;
26271;SDS011;13997;48.902;12.472;2022-10-17T04:43:33;15.40;;;5.50;;
26271;SDS011;13997;48.902;12.472;2022-10-17T04:45:59;10.55;;;5.40;;
26271;SDS011;13997;48.902;12.472;2022-10-17T04:48:26;11.95;;;5.43;;
26271;SDS011;13997;48.902;12.472;2022-10-17T04:50:56;11.07;;;6.32;;
26271;SDS011;13997;48.902;12.472;2022-10-17T04:53:23;8.75;;;5.95;;
26271;SDS011;13997;48.902;12.472;2022-10-17T04:55:51;10.73;;;5.45;;
26271;SDS011;13997;48.902;12.472;2022-10-17T07:22:40;28.13;;;15.43;;
26271;SDS011;13997;48.902;12.472;2022-10-17T07:25:09;32.83;;;16.50;;
26271;SDS011;13997;48.902;12.472;2022-10-17T07:27:35;29.30;;;16.20;;
26271;SDS011;13997;48.902;12.472;2022-10-17T07:30:01;29.42;;;17.20;;
26271;SDS011;13997;48.902;12.472;2022-10-17T07:32:27;33.08;;;17.85;;
26271;SDS011;13997;48.902;12.472;2022-10-17T07:34:53;35.50;;;19.30;;
26271;SDS011;13997;48.902;12.472;2022-10-17T07:37:19;33.38;;;19.30;;
26271;SDS011;13997;48.902;12.472;2022-10-17T07:39:45;33.65;;;19.05;;
26271;SDS011;13997;48.902;12.472;2022-10-17T07:42:11;32.50;;;18.02;;
26271;SDS011;13997;48.902;12.472;2022-10-17T07:44:42;34.35;;;17.67;;
26271;SDS011;13997;48.902;12.472;2022-10-17T07:47:11;33.70;;;18.83;;
26271;SDS011;13997;48.902;12.472;2022-10-17T07:49:37;33.05;;;18.38;;
26271;SDS011;13997;48.902;12.472;2022-10-17T07:52:09;32.13;;;18.15;;
26271;SDS011;13997;48.902;12.472;2022-10-17T07:54:36;31.60;;;18.48;;
26271;SDS011;13997;48.902;12.472;2022-10-17T07:57:02;38.42;;;18.02;;
26271;SDS011;13997;48.902;12.472;2022-10-17T07:59:28;30.83;;;18.65;;
26271;SDS011;13997;48.902;12.472;2022-10-17T08:04:25;33.47;;;17.27;;
26271;SDS011;13997;48.902;12.472;2022-10-17T08:09:22;32.70;;;17.77;;
26271;SDS011;13997;48.902;12.472;2022-10-17T08:11:49;29.88;;;17.60;;
26271;SDS011;13997;48.902;12.472;2022-10-17T08:14:18;34.72;;;18.58;;
26271;SDS011;13997;48.902;12.472;2022-10-17T08:16:44;34.10;;;18.42;;
26271;SDS011;13997;48.902;12.472;2022-10-17T08:19:10;34.15;;;18.17;;
26271;SDS011;13997;48.902;12.472;2022-10-17T08:21:37;33.95;;;19.17;;
26271;SDS011;13997;48.902;12.472;2022-10-17T08:24:03;30.45;;;18.67;;
26271;SDS011;13997;48.902;12.472;2022-10-17T08:26:31;35.28;;;18.13;;
26271;SDS011;13997;48.902;12.472;2022-10-17T08:28:57;34.53;;;20.77;;
26271;SDS011;13997;48.902;12.472;2022-10-17T08:31:24;34.38;;;19.70;;
26271;SDS011;13997;48.902;12.472;2022-10-17T08:33:51;37.92;;;20.92;;
26271;SDS011;13997;48.902;12.472;2022-10-17T08:36:17;35.85;;;22.67;;
26271;SDS011;13997;48.902;12.472;2022-10-17T08:38:45;43.78;;;23.52;;
26271;SDS011;13997;48.902;12.472;2022-10-17T08:41:19;38.60;;;23.02;;
26271;SDS011;13997;48.902;12.472;2022-10-17T08:46:34;42.08;;;23.27;;
26271;SDS011;13997;48.902;12.472;2022-10-17T08:49:02;44.78;;;26.67;;
26271;SDS011;13997;48.902;12.472;2022-10-17T08:51:30;37.83;;;24.15;;
26271;SDS011;13997;48.902;12.472;2022-10-17T08:54:08;46.23;;;23.83;;
26271;SDS011;13997;48.902;12.472;2022-10-17T08:56:39;36.42;;;22.88;;
26271;SDS011;13997;48.902;12.472;2022-10-17T08:59:10;40.38;;;23.20;;
26271;SDS011;13997;48.902;12.472;2022-10-17T09:06:32;38.83;;;23.30;;
26271;SDS011;13997;48.902;12.472;2022-10-17T09:17:30;33.83;;;22.80;;
26271;SDS011;13997;48.902;12.472;2022-10-17T09:19:58;38.97;;;22.85;;
26271;SDS011;13997;48.902;12.472;2022-10-17T09:22:27;37.05;;;23.00;;
26271;SDS011;13997;48.902;12.472;2022-10-17T09:24:55;41.40;;;24.65;;
26271;SDS011;13997;48.902;12.472;2022-10-17T09:27:25;37.60;;;24.33;;
26271;SDS011;13997;48.902;12.472;2022-10-17T09:30:27;36.95;;;23.38;;
26271;SDS011;13997;48.902;12.472;2022-10-17T09:32:45;36.42;;;24.10;;
26271;SDS011;13997;48.902;12.472;2022-10-17T09:35:14;38.35;;;23.58;;
26271;SDS011;13997;48.902;12.472;2022-10-17T09:37:41;39.05;;;23.70;;
26271;SDS011;13997;48.902;12.472;2022-10-17T09:40:10;34.22;;;23.65;;
26271;SDS011;13997;48.902;12.472;2022-10-17T09:42:38;42.92;;;23.73;;
26271;SDS011;13997;48.902;12.472;2022-10-17T09:45:18;37.92;;;23.38;;
26271;SDS011;13997;48.902;12.472;2022-10-17T09:50:28;37.65;;;24.05;;
26271;SDS011;13997;48.902;12.472;2022-10-17T09:52:55;36.42;;;23.85;;
26271;SDS011;13997;48.902;12.472;2022-10-17T09:55:41;37.80;;;23.98;;
26271;SDS011;13997;48.902;12.472;2022-10-17T09:58:11;34.95;;;23.92;;
26271;SDS011;13997;48.902;12.472;2022-10-17T10:00:39;34.17;;;24.05;;
26271;SDS011;13997;48.902;12.472;2022-10-17T10:03:09;33.88;;;22.50;;
26271;SDS011;13997;48.902;12.472;2022-10-17T10:05:36;34.45;;;23.08;;
26271;SDS011;13997;48.902;12.472;2022-10-17T10:08:03;40.28;;;23.02;;
26271;SDS011;13997;48.902;12.472;2022-10-17T10:10:30;31.00;;;22.00;;
26271;SDS011;13997;48.902;12.472;2022-10-17T10:13:14;34.95;;;23.20;;
26271;SDS011;13997;48.902;12.472;2022-10-17T10:15:42;32.00;;;21.60;;
26271;SDS011;13997;48.902;12.472;2022-10-17T10:18:34;29.85;;;21.70;;
26271;SDS011;13997;48.902;12.472;2022-10-17T10:23:31;30.45;;;20.58;;
26271;SDS011;13997;48.902;12.472;2022-10-17T10:26:01;29.67;;;20.02;;
26271;SDS011;13997;48.902;12.472;2022-10-17T10:28:36;32.13;;;20.50;;
26271;SDS011;13997;48.902;12.472;2022-10-17T10:31:03;30.60;;;20.35;;
26271;SDS011;13997;48.902;12.472;2022-10-17T10:33:32;24.58;;;17.67;;
26271;SDS011;13997;48.902;12.472;2022-10-17T10:36:02;27.20;;;17.63;;
26271;SDS011;13997;48.902;12.472;2022-10-17T10:38:29;24.02;;;16.70;;
26271;SDS011;13997;48.902;12.472;2022-10-17T10:41:01;26.92;;;17.55;;
26271;SDS011;13997;48.902;12.472;2022-10-17T10:43:32;26.33;;;17.75;;
26271;SDS011;13997;48.902;12.472;2022-10-17T10:46:00;26.55;;;17.50;;
26271;SDS011;13997;48.902;12.472;2022-10-17T10:48:33;25.85;;;18.60;;
26271;SDS011;13997;48.902;12.472;2022-10-17T10:51:01;26.88;;;17.60;;
26271;SDS011;13997;48.902;12.472;2022-10-17T10:56:23;30.85;;;19.20;;
26271;SDS011;13997;48.902;12.472;2022-10-17T10:58:59;25.27;;;17.95;;
26271;SDS011;13997;48.902;12.472;2022-10-17T11:01:47;27.30;;;16.92;;
26271;SDS011;13997;48.902;12.472;2022-10-17T11:06:42;25.23;;;17.13;;
26271;SDS011;13997;48.902;12.472;2022-10-17T11:11:54;21.52;;;14.88;;
26271;SDS011;13997;48.902;12.472;2022-10-17T11:19:41;24.50;;;16.00;;
26271;SDS011;13997;48.902;12.472;2022-10-17T11:22:11;24.17;;;16.30;;
26271;SDS011;13997;48.902;12.472;2022-10-17T11:24:42;23.25;;;15.70;;
26271;SDS011;13997;48.902;12.472;2022-10-17T11:27:11;25.50;;;15.27;;
26271;SDS011;13997;48.902;12.472;2022-10-17T11:29:38;20.92;;;15.27;;
26271;SDS011;13997;48.902;12.472;2022-10-17T11:32:10;23.58;;;15.90;;
26271;SDS011;13997;48.902;12.472;2022-10-17T11:34:48;18.45;;;13.32;;
26271;SDS011;13997;48.902;12.472;2022-10-17T11:37:17;19.48;;;13.32;;
26271;SDS011;13997;48.902;12.472;2022-10-17T11:39:54;16.25;;;11.35;;
26271;SDS011;13997;48.902;12.472;2022-10-17T11:42:26;15.93;;;10.70;;
26271;SDS011;13997;48.902;12.472;2022-10-17T11:44:55;19.02;;;11.45;;
26271;SDS011;13997;48.902;12.472;2022-10-17T11:47:27;16.75;;;12.52;;
26271;SDS011;13997;48.902;12.472;2022-10-17T11:50:01;17.48;;;12.73;;
26271;SDS011;13997;48.902;12.472;2022-10-17T11:52:38;15.75;;;12.50;;
26271;SDS011;13997;48.902;12.472;2022-10-17T11:55:10;18.55;;;12.60;;
26271;SDS011;13997;48.902;12.472;2022-10-17T11:57:48;16.60;;;11.45;;
26271;SDS011;13997;48.902;12.472;2022-10-17T12:04:00;13.85;;;9.68;;
26271;SDS011;13997;48.902;12.472;2022-10-17T12:06:55;17.73;;;11.05;;
26271;SDS011;13997;48.902;12.472;2022-10-17T12:12:01;17.60;;;11.02;;
26271;SDS011;13997;48.902;12.472;2022-10-17T12:14:35;17.77;;;10.23;;
26271;SDS011;13997;48.902;12.472;2022-10-17T12:17:26;14.13;;;9.68;;
26271;SDS011;13997;48.902;12.472;2022-10-17T12:19:53;14.07;;;9.27;;
26271;SDS011;13997;48.902;12.472;2022-10-17T12:22:24;15.18;;;10.68;;
26271;SDS011;13997;48.902;12.472;2022-10-17T12:24:57;14.95;;;10.95;;
26271;SDS011;13997;48.902;12.472;2022-10-17T12:27:37;17.00;;;10.98;;
26271;SDS011;13997;48.902;12.472;2022-10-17T12:30:04;14.02;;;10.27;;
26271;SDS011;13997;48.902;12.472;2022-10-17T12:32:34;19.83;;;11.00;;
26271;SDS011;13997;48.902;12.472;2022-10-17T12:35:00;16.65;;;9.85;;
26271;SDS011;13997;48.902;12.472;2022-10-17T12:42:52;15.13;;;9.75;;
26271;SDS011;13997;48.902;12.472;2022-10-17T12:45:43;14.20;;;9.68;;
26271;SDS011;13997;48.902;12.472;2022-10-17T12:48:09;11.75;;;8.02;;
26271;SDS011;13997;48.902;12.472;2022-10-17T12:53:22;11.13;;;7.97;;
26271;SDS011;13997;48.902;12.472;2022-10-17T12:55:49;15.23;;;8.77;;
26271;SDS011;13997;48.902;12.472;2022-10-17T12:58:26;14.98;;;9.18;;
26271;SDS011;13997;48.902;12.472;2022-10-17T13:00:52;10.27;;;8.38;;
26271;SDS011;13997;48.902;12.472;2022-10-17T13:03:26;12.23;;;8.32;;
26271;SDS011;13997;48.902;12.472;2022-10-17T13:05:54;13.85;;;9.13;;
26271;SDS011;13997;48.902;12.472;2022-10-17T13:08:23;12.27;;;8.90;;
26271;SDS011;13997;48.902;12.472;2022-10-17T13:10:50;11.40;;;8.38;;
26271;SDS011;13997;48.902;12.472;2022-10-17T13:13:20;12.50;;;8.10;;
26271;SDS011;13997;48.902;12.472;2022-10-17T13:15:47;10.80;;;7.85;;
26271;SDS011;13997;48.902;12.472;2022-10-17T13:18:17;14.25;;;8.10;;
26271;SDS011;13997;48.902;12.472;2022-10-17T13:20:43;13.40;;;7.78;;
26271;SDS011;13997;48.902;12.472;2022-10-17T13:23:25;11.57;;;7.65;;
26271;SDS011;13997;48.902;12.472;2022-10-17T13:28:33;15.73;;;9.55;;
26271;SDS011;13997;48.902;12.472;2022-10-17T13:31:02;17.95;;;10.00;;
26271;SDS011;13997;48.902;12.472;2022-10-17T13:33:31;17.70;;;9.57;;
26271;SDS011;13997;48.902;12.472;2022-10-17T13:35:57;16.02;;;8.95;;
26271;SDS011;13997;48.902;12.472;2022-10-17T13:38:25;13.52;;;8.38;;
26271;SDS011;13997;48.902;12.472;2022-10-17T13:40:52;10.75;;;8.40;;
26271;SDS011;13997;48.902;12.472;2022-10-17T13:43:19;13.38;;;9.38;;
26271;SDS011;13997;48.902;12.472;2022-10-17T13:45:47;17.25;;;10.23;;
26271;SDS011;13997;48.902;12.472;2022-10-17T13:48:21;18.15;;;9.50;;
26271;SDS011;13997;48.902;12.472;2022-10-17T13:50:49;18.40;;;9.70;;
26271;SDS011;13997;48.902;12.472;2022-10-17T13:58:24;14.63;;;9.05;;
26271;SDS011;13997;48.902;12.472;2022-10-17T14:00:50;13.90;;;9.30;;
26271;SDS011;13997;48.902;12.472;2022-10-17T14:03:20;15.55;;;9.20;;
26271;SDS011;13997;48.902;12.472;2022-10-17T14:06:00;13.15;;;9.02;;
26271;SDS011;13997;48.902;12.472;2022-10-17T14:08:27;13.40;;;9.67;;
26271;SDS011;13997;48.902;12.472;2022-10-17T14:10:54;15.30;;;9.90;;
26271;SDS011;13997;48.902;12.472;2022-10-17T14:13:21;13.80;;;9.43;;
26271;SDS011;13997;48.902;12.472;2022-10-17T14:15:51;11.98;;;9.15;;
26271;SDS011;13997;48.902;12.472;2022-10-17T14:18:24;11.10;;;8.73;;
26271;SDS011;13997;48.902;12.472;2022-10-17T14:20:54;11.30;;;8.93;;
26271;SDS011;13997;48.902;12.472;2022-10-17T14:26:08;10.77;;;8.07;;
26271;SDS011;13997;48.902;12.472;2022-10-17T14:28:35;13.77;;;8.67;;
26271;SDS011;13997;48.902;12.472;2022-10-17T14:31:12;18.20;;;9.07;;
26271;SDS011;13997;48.902;12.472;2022-10-17T14:33:44;12.85;;;8.90;;
26271;SDS011;13997;48.902;12.472;2022-10-17T14:36:11;13.38;;;9.18;;
26271;SDS011;13997;48.902;12.472;2022-10-17T14:38:38;15.43;;;8.70;;
26271;SDS011;13997;48.902;12.472;2022-10-17T14:41:13;14.93;;;8.82;;
26271;SDS011;13997;48.902;12.472;2022-10-17T14:46:05;14.35;;;7.72;;
26271;SDS011;13997;48.902;12.472;2022-10-17T14:48:32;17.35;;;7.85;;
26271;SDS011;13997;48.902;12.472;2022-10-17T14:51:12;13.27;;;7.70;;
26271;SDS011;13997;48.902;12.472;2022-10-17T14:53:39;14.85;;;7.40;;
26271;SDS011;13997;48.902;12.472;2022-10-17T14:59:04;13.10;;;7.47;;
26271;SDS011;13997;48.902;12.472;2022-10-17T15:01:31;13.88;;;7.35;;
26271;SDS011;13997;48.902;12.472;2022-10-17T15:03:57;10.07;;;6.93;;
26271;SDS011;13997;48.902;12.472;2022-10-17T15:06:26;10.77;;;7.15;;
26271;SDS011;13997;48.902;12.472;2022-10-17T15:08:52;12.20;;;8.10;;
26271;SDS011;13997;48.902;12.472;2022-10-17T15:11:18;16.60;;;8.45;;
26271;SDS011;13997;48.902;12.472;2022-10-17T15:13:46;11.27;;;8.80;;
26271;SDS011;13997;48.902;12.472;2022-10-17T15:16:19;12.70;;;8.98;;
26271;SDS011;13997;48.902;12.472;2022-10-17T15:18:45;13.77;;;8.10;;
26271;SDS011;13997;48.902;12.472;2022-10-17T15:21:13;10.27;;;8.15;;
26271;SDS011;13997;48.902;12.472;2022-10-17T15:23:40;12.48;;;8.25;;
26271;SDS011;13997;48.902;12.472;2022-10-17T15:26:13;16.20;;;8.80;;
26271;SDS011;13997;48.902;12.472;2022-10-17T15:28:47;14.40;;;8.73;;
26271;SDS011;13997;48.902;12.472;2022-10-17T15:31:15;15.57;;;9.02;;
26271;SDS011;13997;48.902;12.472;2022-10-17T15:33:41;19.48;;;9.60;;
26271;SDS011;13997;48.902;12.472;2022-10-17T15:38:54;13.32;;;9.20;;
26271;SDS011;13997;48.902;12.472;2022-10-17T15:41:21;17.70;;;10.45;;
26271;SDS011;13997;48.902;12.472;2022-10-17T15:43:47;15.70;;;9.52;;
26271;SDS011;13997;48.902;12.472;2022-10-17T15:46:16;17.42;;;9.77;;
26271;SDS011;13997;48.902;12.472;2022-10-17T15:48:43;18.15;;;9.50;;
26271;SDS011;13997;48.902;12.472;2022-10-17T15:51:09;19.23;;;10.02;;
26271;SDS011;13997;48.902;12.472;2022-10-17T15:53:35;15.60;;;9.75;;
26271;SDS011;13997;48.902;12.472;2022-10-17T15:56:02;16.83;;;10.15;;
26271;SDS011;13997;48.902;12.472;2022-10-17T15:58:32;15.50;;;11.15;;
26271;SDS011;13997;48.902;12.472;2022-10-17T16:00:59;23.27;;;11.38;;
26271;SDS011;13997;48.902;12.472;2022-10-17T16:03:25;17.95;;;11.85;;
26271;SDS011;13997;48.902;12.472;2022-10-17T16:05:54;17.17;;;11.85;;
26271;SDS011;13997;48.902;12.472;2022-10-17T16:08:20;21.58;;;12.13;;
26271;SDS011;13997;48.902;12.472;2022-10-17T16:10:46;25.75;;;11.23;;
26271;SDS011;13997;48.902;12.472;2022-10-17T16:13:15;23.33;;;11.95;;
26271;SDS011;13997;48.902;12.472;2022-10-17T16:15:42;18.27;;;10.55;;
26271;SDS011;13997;48.902;12.472;2022-10-17T16:18:08;23.92;;;11.27;;
26271;SDS011;13997;48.902;12.472;2022-10-17T16:20:34;19.30;;;11.02;;
26271;SDS011;13997;48.902;12.472;2022-10-17T16:23:03;18.45;;;10.95;;
26271;SDS011;13997;48.902;12.472;2022-10-17T16:25:29;18.05;;;11.10;;
26271;SDS011;13997;48.902;12.472;2022-10-17T16:27:56;22.30;;;11.23;;
26271;SDS011;13997;48.902;12.472;2022-10-17T16:30:23;16.08;;;10.90;;
26271;SDS011;13997;48.902;12.472;2022-10-17T16:32:52;17.98;;;12.02;;
26271;SDS011;13997;48.902;12.472;2022-10-17T16:35:20;18.17;;;12.02;;
26271;SDS011;13997;48.902;12.472;2022-10-17T16:37:46;23.33;;;11.85;;
26271;SDS011;13997;48.902;12.472;2022-10-17T16:40:13;21.05;;;11.82;;
26271;SDS011;13997;48.902;12.472;2022-10-17T16:42:39;17.23;;;11.55;;
26271;SDS011;13997;48.902;12.472;2022-10-17T16:45:05;22.70;;;14.15;;
26271;SDS011;13997;48.902;12.472;2022-10-17T16:47:34;23.75;;;13.90;;
26271;SDS011;13997;48.902;12.472;2022-10-17T16:50:07;25.55;;;13.88;;
26271;SDS011;13997;48.902;12.472;2022-10-17T16:52:33;25.77;;;14.13;;
26271;SDS011;13997;48.902;12.472;2022-10-17T16:54:59;23.45;;;16.00;;
26271;SDS011;13997;48.902;12.472;2022-10-17T16:57:25;27.88;;;18.65;;
26271;SDS011;13997;48.902;12.472;2022-10-17T16:59:51;40.50;;;25.67;;
26271;SDS011;13997;48.902;12.472;2022-10-17T17:02:17;38.83;;;24.55;;
26271;SDS011;13997;48.902;12.472;2022-10-17T17:04:44;36.42;;;23.98;;
26271;SDS011;13997;48.902;12.472;2022-10-17T17:07:10;34.85;;;22.15;;
26271;SDS011;13997;48.902;12.472;2022-10-17T17:09:44;29.80;;;19.77;;
26271;SDS011;13997;48.902;12.472;2022-10-17T17:12:11;33.85;;;19.95;;
26271;SDS011;13997;48.902;12.472;2022-10-17T17:14:37;28.70;;;18.55;;
26271;SDS011;13997;48.902;12.472;2022-10-17T17:17:03;28.42;;;17.23;;
26271;SDS011;13997;48.902;12.472;2022-10-17T17:19:29;32.50;;;17.13;;
26271;SDS011;13997;48.902;12.472;2022-10-17T17:21:55;25.85;;;15.38;;
26271;SDS011;13997;48.902;12.472;2022-10-17T17:24:21;25.65;;;15.43;;
26271;SDS011;13997;48.902;12.472;2022-10-17T17:26:51;27.00;;;15.90;;
26271;SDS011;13997;48.902;12.472;2022-10-17T17:29:18;31.33;;;15.00;;
26271;SDS011;13997;48.902;12.472;2022-10-17T17:31:44;29.27;;;15.85;;
26271;SDS011;13997;48.902;12.472;2022-10-17T17:34:11;24.33;;;15.88;;
26271;SDS011;13997;48.902;12.472;2022-10-17T17:36:37;29.60;;;16.90;;
26271;SDS011;13997;48.902;12.472;2022-10-17T17:39:04;26.58;;;16.75;;
26271;SDS011;13997;48.902;12.472;2022-10-17T17:41:30;26.50;;;16.67;;
26271;SDS011;13997;48.902;12.472;2022-10-17T17:43:57;40.38;;;17.50;;
26271;SDS011;13997;48.902;12.472;2022-10-17T17:46:23;25.92;;;16.85;;
26271;SDS011;13997;48.902;12.472;2022-10-17T17:48:50;25.35;;;16.77;;
26271;SDS011;13997;48.902;12.472;2022-10-17T17:51:20;34.13;;;17.73;;
26271;SDS011;13997;48.902;12.472;2022-10-17T17:53:46;30.77;;;19.42;;
26271;SDS011;13997;48.902;12.472;2022-10-17T17:56:16;28.20;;;18.27;;
26271;SDS011;13997;48.902;12.472;2022-10-17T17:58:43;36.25;;;19.98;;
26271;SDS011;13997;48.902;12.472;2022-10-17T18:01:13;32.63;;;20.60;;
26271;SDS011;13997;48.902;12.472;2022-10-17T18:03:42;29.55;;;18.73;;
26271;SDS011;13997;48.902;12.472;2022-10-17T18:06:08;29.75;;;19.25;;
26271;SDS011;13997;48.902;12.472;2022-10-17T18:08:34;27.98;;;18.45;;
26271;SDS011;13997;48.902;12.472;2022-10-17T18:11:03;30.58;;;19.45;;
26271;SDS011;13997;48.902;12.472;2022-10-17T18:13:37;30.17;;;19.25;;
26271;SDS011;13997;48.902;12.472;2022-10-17T18:16:03;30.25;;;17.92;;
26271;SDS011;13997;48.902;12.472;2022-10-17T18:18:37;28.65;;;17.17;;
26271;SDS011;13997;48.902;12.472;2022-10-17T18:21:06;24.55;;;15.98;;
26271;SDS011;13997;48.902;12.472;2022-10-17T18:23:36;27.52;;;15.77;;
26271;SDS011;13997;48.902;12.472;2022-10-17T18:26:03;27.33;;;17.48;;
26271;SDS011;13997;48.902;12.472;2022-10-17T18:28:29;35.92;;;20.55;;
26271;SDS011;13997;48.902;12.472;2022-10-17T18:30:55;37.88;;;21.83;;
26271;SDS011;13997;48.902;12.472;2022-10-17T18:33:26;36.88;;;22.80;;
26271;SDS011;13997;48.902;12.472;2022-10-17T18:35:52;40.70;;;23.60;;
26271;SDS011;13997;48.902;12.472;2022-10-17T18:38:19;37.85;;;24.08;;
26271;SDS011;13997;48.902;12.472;2022-10-17T18:40:47;44.83;;;26.88;;
26271;SDS011;13997;48.902;12.472;2022-10-17T18:43:13;40.80;;;25.33;;
26271;SDS011;13997;48.902;12.472;2022-10-17T18:45:40;42.92;;;24.25;;
26271;SDS011;13997;48.902;12.472;2022-10-17T18:48:06;39.55;;;23.60;;